Sachse's Hourly Summary for Saturday, May 12, 2018
Hour Temp
(f)
RH
(%)
Solar Rad.
(MJ/m2)
Rainfall
(in)
Wind
(mph)
5/12/2018 12:00 AM 75 59 0 0 6.62
5/12/2018 1:00 AM 74 64 0 0 7.8
5/12/2018 2:00 AM 74 69 0 0 8.52
5/12/2018 3:00 AM 73 71 0 0 8.47
5/12/2018 4:00 AM 72 74 0 0 8.26
5/12/2018 5:00 AM 72 79 0 0 9.12
5/12/2018 6:00 AM 72 79 0 0 6.97
5/12/2018 7:00 AM 72 81 0.02 0 6.44
5/12/2018 8:00 AM 72 80 0.33 0 6.29
5/12/2018 9:00 AM 73 78 0.46 0 6.3
5/12/2018 10:00 AM 76 68 1.09 0 8.63
5/12/2018 11:00 AM 78 58 2.04 0 9.43
5/12/2018 12:00 PM 81 54 2.58 0 10.42
5/12/2018 1:00 PM 82 47 2.46 0 9.03
5/12/2018 2:00 PM 84 44 2.78 0 9.43
5/12/2018 3:00 PM 85 40 2.7 0 9.24
5/12/2018 4:00 PM 86 39 2.31 0 10.56
5/12/2018 5:00 PM 86 43 1.78 0 9.82
5/12/2018 6:00 PM 86 43 0.62 0 9.12
5/12/2018 7:00 PM 86 43 0.7 0 8.47
5/12/2018 8:00 PM 84 44 0.3 0 5.6
5/12/2018 9:00 PM 81 51 0.01 0 3.14
5/12/2018 10:00 PM 79 57 0 0 3.07
5/12/2018 11:00 PM 78 60 0 0 3.09
Data Summary 78 59 20.18 0.00 7.66